createdAt,value
2022-08-26T00:00:37.151Z,72.79
2022-08-26T00:02:10.784Z,73.08
2022-08-26T00:03:45.003Z,73.17
2022-08-26T00:05:18.528Z,73.09
2022-08-26T00:06:52.568Z,73.14
2022-08-26T00:08:26.060Z,73.17
2022-08-26T00:09:59.850Z,73.51
2022-08-26T00:11:33.755Z,73.37
2022-08-26T00:13:10.726Z,73.74
2022-08-26T00:14:43.969Z,73.48
2022-08-26T00:16:20.608Z,73.52
2022-08-26T00:17:54.513Z,73.23
2022-08-26T00:19:27.834Z,73.34
2022-08-26T00:21:01.699Z,73.37
2022-08-26T00:22:39.757Z,73.43
2022-08-26T00:24:13.645Z,73.37
2022-08-26T00:25:46.646Z,73.30
2022-08-26T00:27:20.015Z,73.02
2022-08-26T00:28:53.944Z,73.51
2022-08-26T00:30:28.619Z,73.87
2022-08-26T00:32:03.152Z,74.06
2022-08-26T00:33:38.833Z,74.20
2022-08-26T00:35:13.642Z,74.28
2022-08-26T00:36:49.214Z,74.31
2022-08-26T00:38:26.429Z,74.02
2022-08-26T00:40:00.762Z,74.16
2022-08-26T00:41:39.247Z,73.74
2022-08-26T00:43:13.018Z,74.08
2022-08-26T00:44:46.830Z,73.93
2022-08-26T00:46:23.494Z,74.20
2022-08-26T00:47:58.711Z,74.37
2022-08-26T00:49:36.835Z,74.20
2022-08-26T00:51:15.391Z,73.81
2022-08-26T00:52:52.829Z,73.79
2022-08-26T00:54:28.343Z,73.90
2022-08-26T00:56:04.243Z,73.56
2022-08-26T00:57:37.568Z,73.49
2022-08-26T00:59:12.759Z,73.56
2022-08-26T01:00:46.199Z,73.00
2022-08-26T01:02:21.584Z,72.61
2022-08-26T01:03:56.550Z,72.33
2022-08-26T01:05:30.962Z,72.64
2022-08-26T01:07:04.774Z,72.49
2022-08-26T01:08:39.225Z,72.31
2022-08-26T01:10:16.551Z,72.63
2022-08-26T01:11:51.639Z,73.09
2022-08-26T01:13:25.617Z,72.93
2022-08-26T01:15:00.205Z,73.06
2022-08-26T01:16:33.687Z,73.25
2022-08-26T01:18:09.932Z,73.74
2022-08-26T01:19:45.281Z,74.05
2022-08-26T01:21:27.638Z,74.20
2022-08-26T01:23:10.894Z,75.59
2022-08-26T01:24:44.674Z,76.18
2022-08-26T01:26:25.272Z,75.82
2022-08-26T01:28:00.998Z,75.65
2022-08-26T01:29:35.346Z,75.76
2022-08-26T01:31:11.776Z,75.80
2022-08-26T01:32:49.710Z,75.28
2022-08-26T01:34:23.429Z,75.34
2022-08-26T01:35:59.327Z,74.60
2022-08-26T01:37:37.141Z,74.19
2022-08-26T01:39:13.993Z,74.25
2022-08-26T01:40:47.705Z,74.37
2022-08-26T01:42:28.547Z,73.96
2022-08-26T01:44:05.244Z,73.57
2022-08-26T01:45:41.061Z,72.80
2022-08-26T01:47:16.631Z,72.22
2022-08-26T01:48:54.350Z,71.78
2022-08-26T01:50:35.345Z,72.04
2022-08-26T01:52:09.688Z,72.02
2022-08-26T01:53:45.988Z,72.19
2022-08-26T01:55:32.043Z,71.86
2022-08-26T01:57:09.709Z,70.33
2022-08-26T01:58:45.794Z,68.78
2022-08-26T02:00:19.399Z,67.29
2022-08-26T02:01:53.822Z,66.82
2022-08-26T02:03:29.310Z,65.97
2022-08-26T02:05:05.294Z,63.82
2022-08-26T02:06:39.380Z,62.15
2022-08-26T02:08:14.495Z,60.83
2022-08-26T02:10:00.548Z,59.41
2022-08-26T02:11:33.749Z,58.26
2022-08-26T02:13:11.196Z,56.45
2022-08-26T02:14:50.878Z,56.15
2022-08-26T02:16:27.724Z,55.43
2022-08-26T02:18:01.644Z,55.00
2022-08-26T02:19:37.992Z,54.37
2022-08-26T02:21:11.909Z,53.81
2022-08-26T02:22:45.856Z,53.20
2022-08-26T02:24:27.512Z,52.32
2022-08-26T02:26:09.056Z,51.16
2022-08-26T02:27:42.409Z,50.54
2022-08-26T02:29:20.139Z,49.17
2022-08-26T02:30:55.615Z,48.47
2022-08-26T02:32:29.378Z,48.05
2022-08-26T02:34:11.992Z,46.95
2022-08-26T02:35:45.904Z,46.48
2022-08-26T02:37:20.189Z,46.12
2022-08-26T02:38:56.545Z,45.73
2022-08-26T02:40:32.232Z,44.60
2022-08-26T02:42:05.778Z,43.46
2022-08-26T02:43:39.063Z,43.38
2022-08-26T02:45:12.443Z,42.79
2022-08-26T02:46:46.881Z,42.56
2022-08-26T02:48:21.977Z,42.44
2022-08-26T02:49:55.342Z,41.99
2022-08-26T02:51:28.655Z,41.44
2022-08-26T02:53:02.174Z,40.55
2022-08-26T02:54:36.003Z,41.13
2022-08-26T02:56:09.674Z,40.15
2022-08-26T02:57:45.700Z,39.89
2022-08-26T02:59:19.511Z,39.22
2022-08-26T03:00:58.179Z,39.93
2022-08-26T03:02:31.440Z,38.87
2022-08-26T03:04:05.959Z,39.44
2022-08-26T03:05:39.207Z,38.63
2022-08-26T03:07:13.531Z,38.26
2022-08-26T03:08:47.820Z,38.62
2022-08-26T03:10:21.898Z,37.68
2022-08-26T03:11:55.977Z,37.14
2022-08-26T03:13:29.432Z,36.85
2022-08-26T03:15:16.408Z,36.50
2022-08-26T03:16:54.644Z,35.92
2022-08-26T03:18:28.155Z,36.12
2022-08-26T03:20:02.266Z,35.69
2022-08-26T03:21:36.482Z,35.63
2022-08-26T03:23:09.909Z,35.45
2022-08-26T03:24:43.563Z,35.84
2022-08-26T03:26:19.889Z,35.01
2022-08-26T03:27:53.766Z,34.38
2022-08-26T03:29:50.399Z,34.32
2022-08-26T03:31:24.634Z,34.50
2022-08-26T03:32:58.148Z,34.20
2022-08-26T03:34:34.180Z,34.09
2022-08-26T03:36:08.457Z,34.29
2022-08-26T03:37:41.792Z,34.03
2022-08-26T03:39:15.416Z,34.33
2022-08-26T03:40:49.490Z,34.68
2022-08-26T03:42:24.319Z,35.03
2022-08-26T03:44:01.851Z,35.13
2022-08-26T03:45:36.758Z,34.69
2022-08-26T03:47:13.119Z,34.64
2022-08-26T03:48:46.504Z,33.62
2022-08-26T03:50:26.570Z,33.25
2022-08-26T03:52:00.166Z,33.47
2022-08-26T03:53:36.292Z,33.39
2022-08-26T03:55:11.084Z,32.99
2022-08-26T03:56:46.531Z,33.24
2022-08-26T03:58:20.768Z,33.14
2022-08-26T03:59:54.739Z,32.63
2022-08-26T04:01:29.759Z,31.90
2022-08-26T04:03:04.419Z,31.85
2022-08-26T04:04:40.414Z,30.54
2022-08-26T04:06:14.272Z,31.07
2022-08-26T04:07:50.489Z,30.73
2022-08-26T04:09:23.845Z,30.25
2022-08-26T04:10:58.735Z,30.15
2022-08-26T04:12:32.203Z,29.94
2022-08-26T04:14:13.203Z,29.91
2022-08-26T04:15:47.076Z,30.17
2022-08-26T04:17:24.971Z,30.07
2022-08-26T04:18:58.661Z,30.21
2022-08-26T04:20:32.543Z,29.83
2022-08-26T04:22:06.052Z,29.79
2022-08-26T04:23:47.159Z,29.28
2022-08-26T04:25:21.906Z,29.01
2022-08-26T04:26:57.102Z,28.89
2022-08-26T04:28:30.630Z,29.08
2022-08-26T04:30:04.603Z,29.64
2022-08-26T04:31:37.873Z,29.11
2022-08-26T04:33:14.201Z,29.85
2022-08-26T04:34:48.029Z,29.82
2022-08-26T04:36:21.592Z,29.22
2022-08-26T04:37:55.775Z,29.35
2022-08-26T04:39:28.963Z,29.31
2022-08-26T04:41:05.537Z,29.80
2022-08-26T04:42:48.928Z,30.48
2022-08-26T04:44:22.915Z,30.36
2022-08-26T04:46:04.318Z,30.07
2022-08-26T04:47:38.085Z,30.15
2022-08-26T04:49:11.714Z,30.28
2022-08-26T04:50:45.014Z,30.27
2022-08-26T04:52:23.424Z,30.22
2022-08-26T04:54:00.016Z,30.24
2022-08-26T04:55:38.261Z,30.80
2022-08-26T04:57:13.217Z,30.35
2022-08-26T04:58:46.967Z,30.21
2022-08-26T05:00:21.109Z,30.32
2022-08-26T05:01:58.147Z,29.88
2022-08-26T05:03:31.782Z,29.61
2022-08-26T05:05:07.541Z,29.44
2022-08-26T05:06:44.202Z,29.11
2022-08-26T05:08:21.645Z,29.07
2022-08-26T05:09:56.146Z,28.44
2022-08-26T05:11:29.994Z,28.40
2022-08-26T05:13:04.489Z,29.19
2022-08-26T05:14:44.820Z,28.91
2022-08-26T05:16:20.344Z,28.42
2022-08-26T05:17:53.651Z,28.47
2022-08-26T05:19:27.825Z,28.02
2022-08-26T05:21:02.657Z,28.15
2022-08-26T05:22:36.216Z,29.01
2022-08-26T05:24:11.458Z,28.30
2022-08-26T05:25:49.986Z,28.66
2022-08-26T05:27:23.197Z,28.20
2022-08-26T05:28:58.243Z,28.08
2022-08-26T05:30:32.384Z,27.89
2022-08-26T05:32:06.638Z,27.78
2022-08-26T05:33:41.294Z,27.92
2022-08-26T05:35:15.995Z,28.05
2022-08-26T05:36:49.487Z,27.88
2022-08-26T05:38:23.407Z,27.56
2022-08-26T05:39:58.109Z,27.40
2022-08-26T05:41:38.344Z,27.52
2022-08-26T05:43:15.247Z,27.85
2022-08-26T05:44:53.927Z,27.93
2022-08-26T05:46:30.049Z,28.16
2022-08-26T05:48:03.563Z,27.18
2022-08-26T05:49:43.738Z,27.47
2022-08-26T05:51:26.180Z,27.98
2022-08-26T05:52:59.848Z,28.17
2022-08-26T05:54:35.337Z,28.19
2022-08-26T05:56:09.647Z,28.13
2022-08-26T05:57:43.349Z,27.99
2022-08-26T05:59:17.031Z,28.60
2022-08-26T06:01:05.271Z,28.22
2022-08-26T06:02:40.014Z,28.18
2022-08-26T06:04:13.684Z,28.08
2022-08-26T06:05:47.351Z,27.97
2022-08-26T06:07:42.636Z,27.70
2022-08-26T06:09:17.432Z,27.57
2022-08-26T06:10:54.825Z,28.16
2022-08-26T06:12:28.281Z,28.39
2022-08-26T06:14:03.751Z,27.65
2022-08-26T06:15:47.838Z,27.81
2022-08-26T06:17:24.116Z,27.80
2022-08-26T06:18:58.531Z,27.89
2022-08-26T06:20:32.634Z,27.63
2022-08-26T06:22:28.480Z,27.00
2022-08-26T06:24:27.715Z,27.27
2022-08-26T06:26:12.007Z,27.81
2022-08-26T06:30:29.027Z,29.70
2022-08-26T06:32:03.481Z,30.24
2022-08-26T06:33:38.902Z,29.84
2022-08-26T06:35:27.825Z,30.24
2022-08-26T06:37:18.782Z,29.82
2022-08-26T06:38:57.206Z,30.63
2022-08-26T06:40:32.979Z,30.33
2022-08-26T06:42:10.801Z,31.05
2022-08-26T06:43:44.274Z,30.66
2022-08-26T06:45:24.212Z,30.71
2022-08-26T06:46:58.196Z,30.99
2022-08-26T06:48:56.385Z,32.40
2022-08-26T06:50:47.695Z,32.09
2022-08-26T06:52:24.370Z,32.69
2022-08-26T06:54:00.562Z,32.50
2022-08-26T06:55:37.000Z,31.46
2022-08-26T06:57:11.789Z,31.64
2022-08-26T06:58:46.351Z,31.43
2022-08-26T07:00:24.705Z,31.03
2022-08-26T07:01:59.212Z,31.13
2022-08-26T07:03:44.999Z,31.83
2022-08-26T07:05:35.718Z,31.52
2022-08-26T07:07:30.028Z,31.61
2022-08-26T07:09:28.547Z,31.69
2022-08-26T07:11:10.296Z,32.25
2022-08-26T07:12:52.970Z,31.91
2022-08-26T07:14:29.767Z,32.45
2022-08-26T07:16:26.871Z,32.16
2022-08-26T07:18:18.248Z,31.59
2022-08-26T07:20:18.829Z,31.52
2022-08-26T07:21:52.425Z,31.58
2022-08-26T07:23:46.280Z,30.97
2022-08-26T07:25:32.502Z,30.18
2022-08-26T07:27:44.297Z,30.75
2022-08-26T07:31:39.535Z,30.59
2022-08-26T07:35:06.575Z,30.75
2022-08-26T07:36:40.499Z,30.47
2022-08-26T07:38:16.806Z,30.75
2022-08-26T07:39:49.817Z,30.54
2022-08-26T07:41:26.001Z,30.73
2022-08-26T07:43:01.397Z,30.50
2022-08-26T07:44:37.533Z,30.40
2022-08-26T07:46:15.874Z,30.34
2022-08-26T07:47:49.424Z,30.20
2022-08-26T07:49:23.960Z,30.12
2022-08-26T07:50:57.172Z,30.23
2022-08-26T07:52:31.080Z,29.72
2022-08-26T07:54:04.771Z,30.39
2022-08-26T07:55:38.059Z,29.92
2022-08-26T07:57:11.727Z,28.11
2022-08-26T07:58:47.701Z,28.81
2022-08-26T08:00:33.376Z,28.65
2022-08-26T08:02:07.954Z,28.81
2022-08-26T08:03:44.753Z,29.58
2022-08-26T08:05:19.203Z,27.62
2022-08-26T08:06:52.502Z,27.75
2022-08-26T08:08:29.174Z,27.71
2022-08-26T08:10:04.599Z,27.93
2022-08-26T08:11:41.867Z,28.11
2022-08-26T08:13:16.803Z,28.92
2022-08-26T08:14:52.920Z,28.81
2022-08-26T08:16:26.421Z,28.36
2022-08-26T08:18:00.893Z,28.57
2022-08-26T08:19:38.940Z,28.80
2022-08-26T08:21:21.988Z,28.51
2022-08-26T08:22:59.675Z,28.05
2022-08-26T08:24:33.857Z,27.53
2022-08-26T08:26:09.211Z,27.87
2022-08-26T08:27:43.712Z,27.60
2022-08-26T08:29:17.128Z,27.82
2022-08-26T08:30:50.629Z,27.94
2022-08-26T08:32:24.425Z,28.17
2022-08-26T08:33:58.066Z,27.93
2022-08-26T08:35:31.674Z,27.74
2022-08-26T08:37:08.669Z,28.31
2022-08-26T08:38:44.776Z,28.11
2022-08-26T08:40:18.991Z,28.00
2022-08-26T08:42:06.470Z,27.88
2022-08-26T08:43:41.409Z,27.57
2022-08-26T08:45:35.913Z,27.36
2022-08-26T08:47:20.122Z,27.65
2022-08-26T08:49:00.381Z,27.50
2022-08-26T08:50:36.247Z,27.50
2022-08-26T08:52:28.179Z,27.74
2022-08-26T08:54:03.058Z,27.56
2022-08-26T08:55:51.312Z,27.54
2022-08-26T08:57:32.545Z,27.95
2022-08-26T08:59:17.082Z,27.87
2022-08-26T09:00:56.685Z,27.51
2022-08-26T09:02:53.210Z,27.32
2022-08-26T09:04:41.957Z,27.65
2022-08-26T09:06:19.330Z,27.21
2022-08-26T09:07:53.035Z,27.81
2022-08-26T09:09:34.553Z,28.26
2022-08-26T09:11:08.594Z,28.29
2022-08-26T09:12:44.036Z,28.02
2022-08-26T09:14:20.052Z,27.85
2022-08-26T09:16:14.520Z,28.13
2022-08-26T09:17:51.628Z,27.74
2022-08-26T09:19:49.209Z,27.48
2022-08-26T09:21:26.287Z,27.35
2022-08-26T09:23:00.586Z,27.27
2022-08-26T09:24:41.675Z,27.22
2022-08-26T09:26:21.435Z,27.34
2022-08-26T09:27:57.169Z,27.41
2022-08-26T09:29:34.783Z,27.33
2022-08-26T09:31:27.787Z,27.12
2022-08-26T09:33:10.989Z,27.30
2022-08-26T09:34:57.544Z,28.07
2022-08-26T09:36:41.225Z,27.56
2022-08-26T09:38:28.576Z,27.97
2022-08-26T09:40:23.199Z,27.59
2022-08-26T09:42:11.972Z,27.58
2022-08-26T09:43:49.650Z,27.60
2022-08-26T09:45:28.702Z,27.42
2022-08-26T09:47:07.357Z,27.34
2022-08-26T09:48:43.630Z,27.54
2022-08-26T09:50:37.223Z,28.01
2022-08-26T09:52:25.098Z,27.31
2022-08-26T09:54:02.396Z,27.38
2022-08-26T09:55:37.733Z,27.30
2022-08-26T09:57:14.247Z,27.36
2022-08-26T09:58:48.558Z,27.49
2022-08-26T10:00:30.727Z,27.46
2022-08-26T10:02:41.388Z,27.11
2022-08-26T10:04:23.721Z,27.57
2022-08-26T10:06:04.667Z,27.37
2022-08-26T10:07:42.670Z,27.45
2022-08-26T10:09:20.388Z,27.64
2022-08-26T10:10:54.094Z,27.67
2022-08-26T10:12:27.908Z,27.72
2022-08-26T10:14:28.176Z,27.60
2022-08-26T10:16:10.970Z,28.03
2022-08-26T10:17:50.096Z,27.93
2022-08-26T10:19:29.280Z,27.59
2022-08-26T10:21:27.975Z,27.51
2022-08-26T10:23:14.100Z,27.48
2022-08-26T10:24:55.130Z,27.53
2022-08-26T10:26:42.183Z,27.35
2022-08-26T10:28:37.697Z,27.24
2022-08-26T10:30:13.130Z,27.30
2022-08-26T10:31:51.457Z,27.30
2022-08-26T10:33:25.906Z,27.28
2022-08-26T10:34:59.291Z,27.16
2022-08-26T10:37:14.133Z,27.06
2022-08-26T10:38:44.878Z,27.31
2022-08-26T10:40:26.432Z,27.11
2022-08-26T10:42:04.229Z,27.39
2022-08-26T10:43:43.519Z,27.24
2022-08-26T10:45:22.672Z,27.36
2022-08-26T10:47:02.161Z,27.43
2022-08-26T10:48:39.155Z,28.00
2022-08-26T10:50:12.781Z,27.24
2022-08-26T10:52:12.218Z,27.00
2022-08-26T10:54:03.299Z,26.88
2022-08-26T10:55:37.030Z,26.59
2022-08-26T10:57:23.256Z,26.34
2022-08-26T10:58:59.511Z,26.91
2022-08-26T11:00:55.625Z,26.99
2022-08-26T11:02:37.474Z,26.91
2022-08-26T11:04:29.223Z,27.54
2022-08-26T11:06:22.388Z,27.57
2022-08-26T11:08:25.137Z,26.91
2022-08-26T11:09:59.331Z,27.04
2022-08-26T11:11:42.041Z,27.21
2022-08-26T11:13:15.705Z,26.97
2022-08-26T11:14:56.185Z,27.34
2022-08-26T11:16:46.417Z,26.92
2022-08-26T11:18:43.378Z,27.13
2022-08-26T11:20:16.849Z,27.30
2022-08-26T11:21:53.717Z,27.52
2022-08-26T11:23:29.411Z,27.59
2022-08-26T11:25:07.014Z,28.05
2022-08-26T11:26:56.050Z,27.15
2022-08-26T11:28:44.262Z,27.19
2022-08-26T11:30:18.503Z,27.15
2022-08-26T11:31:55.076Z,26.97
2022-08-26T11:33:49.262Z,27.10
2022-08-26T11:35:25.148Z,26.82
2022-08-26T11:36:59.499Z,27.07
2022-08-26T11:38:32.940Z,27.09
2022-08-26T11:40:14.635Z,26.57
2022-08-26T11:41:52.728Z,27.04
2022-08-26T11:43:30.346Z,26.90
2022-08-26T11:45:14.798Z,27.24
2022-08-26T11:46:58.516Z,27.59
2022-08-26T11:48:36.161Z,27.27
2022-08-26T11:50:14.366Z,26.58
2022-08-26T11:51:51.373Z,26.61
2022-08-26T11:53:26.275Z,26.85
2022-08-26T11:55:05.106Z,27.33
2022-08-26T11:56:40.124Z,27.36
2022-08-26T11:58:15.015Z,27.44
2022-08-26T11:59:48.690Z,27.53
2022-08-26T12:01:28.219Z,27.62
2022-08-26T12:03:07.900Z,28.08
2022-08-26T12:04:42.865Z,28.21
2022-08-26T12:06:31.953Z,27.38
2022-08-26T12:08:08.445Z,27.28
2022-08-26T12:09:55.034Z,27.27
2022-08-26T12:11:32.223Z,27.50
2022-08-26T12:13:10.286Z,27.60
2022-08-26T12:14:44.459Z,27.70
2022-08-26T12:16:23.446Z,27.57
2022-08-26T12:17:57.489Z,27.76
2022-08-26T12:19:32.942Z,27.54
2022-08-26T12:21:19.970Z,27.54
2022-08-26T12:22:54.858Z,27.81
2022-08-26T12:24:28.364Z,27.97
2022-08-26T12:26:04.730Z,27.96
2022-08-26T12:27:42.128Z,27.66
2022-08-26T12:29:27.487Z,27.46
2022-08-26T12:31:02.352Z,27.84
2022-08-26T12:32:36.430Z,27.95
2022-08-26T12:34:17.823Z,27.72
2022-08-26T12:35:56.564Z,27.94
2022-08-26T12:37:33.061Z,27.96
2022-08-26T12:39:09.016Z,27.92
2022-08-26T12:40:46.253Z,27.84
2022-08-26T12:42:19.866Z,28.07
2022-08-26T12:43:54.116Z,27.99
2022-08-26T12:45:29.809Z,28.34
2022-08-26T12:47:08.744Z,28.29
2022-08-26T12:48:44.783Z,28.11
2022-08-26T12:50:19.194Z,28.00
2022-08-26T12:51:53.207Z,28.00
2022-08-26T12:53:27.666Z,27.93
2022-08-26T12:55:03.426Z,28.01
2022-08-26T12:56:39.267Z,27.84
2022-08-26T12:58:19.438Z,27.66
2022-08-26T12:59:53.036Z,27.93
2022-08-26T13:01:26.671Z,28.35
2022-08-26T13:03:04.533Z,28.00
2022-08-26T13:04:40.866Z,27.92
2022-08-26T13:06:23.445Z,28.16
2022-08-26T13:08:12.947Z,27.75
2022-08-26T13:09:46.629Z,28.27
2022-08-26T13:11:21.945Z,27.78
2022-08-26T13:12:55.661Z,27.87
2022-08-26T13:14:29.005Z,28.06
2022-08-26T13:16:02.789Z,28.29
2022-08-26T13:17:36.353Z,28.24
2022-08-26T13:19:10.962Z,28.18
2022-08-26T13:20:44.647Z,27.98
2022-08-26T13:22:20.876Z,28.02
2022-08-26T13:23:54.782Z,28.19
2022-08-26T13:25:28.274Z,28.20
2022-08-26T13:27:02.143Z,28.20
2022-08-26T13:28:35.643Z,27.82
2022-08-26T13:30:10.302Z,27.95
2022-08-26T13:31:46.733Z,27.86
2022-08-26T13:33:21.986Z,27.87
2022-08-26T13:34:56.610Z,27.70
2022-08-26T13:36:30.282Z,27.93
2022-08-26T13:38:03.789Z,28.43
2022-08-26T13:39:38.518Z,28.56
2022-08-26T13:41:12.041Z,28.79
2022-08-26T13:42:49.632Z,28.94
2022-08-26T13:44:24.254Z,28.96
2022-08-26T13:45:57.616Z,28.89
2022-08-26T13:47:31.422Z,29.25
2022-08-26T13:49:04.699Z,29.19
2022-08-26T13:50:38.836Z,29.07
2022-08-26T13:52:12.329Z,29.08
2022-08-26T13:53:45.788Z,28.83
2022-08-26T13:55:19.676Z,29.31
2022-08-26T13:56:52.757Z,29.16
2022-08-26T13:58:26.821Z,29.28
2022-08-26T14:00:00.064Z,29.26
2022-08-26T14:01:33.621Z,29.46
2022-08-26T14:03:11.295Z,29.47
2022-08-26T14:04:46.337Z,29.64
2022-08-26T14:06:22.834Z,29.68
2022-08-26T14:08:00.437Z,29.77
2022-08-26T14:09:37.866Z,29.94
2022-08-26T14:11:12.056Z,29.74
2022-08-26T14:12:46.338Z,30.05
2022-08-26T14:14:19.339Z,30.07
2022-08-26T14:15:53.417Z,29.96
2022-08-26T14:17:27.361Z,29.97
2022-08-26T14:19:05.749Z,30.21
2022-08-26T14:20:42.916Z,30.17
2022-08-26T14:22:17.805Z,30.04
2022-08-26T14:23:55.892Z,30.06
2022-08-26T14:25:31.333Z,30.16
2022-08-26T14:27:04.728Z,30.24
2022-08-26T14:28:38.582Z,30.17
2022-08-26T14:30:12.005Z,30.39
2022-08-26T14:31:45.987Z,30.33
2022-08-26T14:33:20.205Z,30.55
2022-08-26T14:34:53.650Z,30.59
2022-08-26T14:36:31.434Z,30.37
2022-08-26T14:38:04.712Z,30.46
2022-08-26T14:39:38.490Z,30.77
2022-08-26T14:41:12.039Z,30.68
2022-08-26T14:42:52.672Z,30.66
2022-08-26T14:44:35.732Z,30.78
2022-08-26T14:46:12.509Z,31.08
2022-08-26T14:47:47.469Z,30.80
2022-08-26T14:49:21.496Z,30.93
2022-08-26T14:50:55.159Z,31.10
2022-08-26T14:52:28.596Z,31.31
2022-08-26T14:54:14.864Z,31.40
2022-08-26T14:55:48.523Z,31.54
2022-08-26T14:57:22.505Z,31.82
2022-08-26T14:58:55.775Z,31.91
2022-08-26T15:00:29.492Z,31.82
2022-08-26T15:02:03.648Z,31.99
2022-08-26T15:03:37.134Z,32.15
2022-08-26T15:05:11.217Z,32.30
2022-08-26T15:06:44.946Z,32.57
2022-08-26T15:08:18.837Z,32.91
2022-08-26T15:09:52.273Z,32.93
2022-08-26T15:11:25.657Z,32.83
2022-08-26T15:12:59.128Z,33.34
2022-08-26T15:14:33.238Z,33.46
2022-08-26T15:16:06.925Z,33.86
2022-08-26T15:17:43.193Z,33.87
2022-08-26T15:19:18.974Z,33.88
2022-08-26T15:20:52.574Z,33.92
2022-08-26T15:22:29.402Z,34.23
2022-08-26T15:24:04.033Z,34.46
2022-08-26T15:25:37.501Z,35.30
2022-08-26T15:27:11.083Z,35.21
2022-08-26T15:28:44.469Z,35.26
2022-08-26T15:30:18.989Z,35.77
2022-08-26T15:31:55.266Z,35.87
2022-08-26T15:33:34.220Z,35.69
2022-08-26T15:35:09.292Z,35.97
2022-08-26T15:36:45.371Z,36.46
2022-08-26T15:38:19.181Z,36.59
2022-08-26T15:39:53.369Z,36.30
2022-08-26T15:41:27.447Z,37.52
2022-08-26T15:43:17.734Z,37.88
2022-08-26T15:44:53.042Z,38.06
2022-08-26T15:46:26.429Z,38.30
2022-08-26T15:48:01.158Z,38.26
2022-08-26T15:49:35.114Z,38.79
2022-08-26T15:51:18.872Z,38.86
2022-08-26T15:52:52.409Z,38.97
2022-08-26T15:54:26.392Z,38.53
2022-08-26T15:56:00.781Z,38.65
2022-08-26T15:57:36.866Z,39.04
2022-08-26T15:59:12.039Z,38.80
2022-08-26T16:00:47.885Z,38.61
2022-08-26T16:02:24.323Z,38.47
2022-08-26T16:03:57.568Z,38.89
2022-08-26T16:05:30.728Z,38.60
2022-08-26T16:07:05.130Z,39.60
2022-08-26T16:08:38.297Z,39.75
2022-08-26T16:10:14.683Z,40.08
2022-08-26T16:11:51.280Z,39.99
2022-08-26T16:13:25.029Z,41.05
2022-08-26T16:15:03.280Z,41.52
2022-08-26T16:16:40.087Z,41.15
2022-08-26T16:18:14.463Z,41.42
2022-08-26T16:19:47.859Z,41.80
2022-08-26T16:21:22.978Z,42.64
2022-08-26T16:22:56.997Z,43.06
2022-08-26T16:24:30.661Z,42.92
2022-08-26T16:26:11.159Z,43.41
2022-08-26T16:27:44.417Z,42.83
2022-08-26T16:29:18.049Z,42.87
2022-08-26T16:30:52.026Z,43.03
2022-08-26T16:32:29.382Z,43.57
2022-08-26T16:34:05.060Z,43.00
2022-08-26T16:35:38.476Z,42.82
2022-08-26T16:37:11.878Z,42.94
2022-08-26T16:38:50.656Z,42.82
2022-08-26T16:40:24.103Z,42.33
2022-08-26T16:41:58.720Z,41.94
2022-08-26T16:43:38.010Z,40.94
2022-08-26T16:45:11.774Z,41.06
2022-08-26T16:46:46.125Z,40.77
2022-08-26T16:48:20.524Z,40.58
2022-08-26T16:49:54.925Z,40.34
2022-08-26T16:51:29.027Z,40.05
2022-08-26T16:53:02.461Z,40.25
2022-08-26T16:54:36.745Z,39.81
2022-08-26T16:56:33.930Z,39.87
2022-08-26T16:58:08.441Z,39.53
2022-08-26T16:59:42.543Z,39.84
2022-08-26T17:01:16.481Z,39.93
2022-08-26T17:02:50.163Z,40.02
2022-08-26T17:04:24.947Z,39.96
2022-08-26T17:05:59.011Z,40.02
2022-08-26T17:07:32.265Z,40.40
2022-08-26T17:09:06.706Z,40.17
2022-08-26T17:10:40.516Z,40.61
2022-08-26T17:12:13.986Z,40.81
2022-08-26T17:13:47.490Z,41.00
2022-08-26T17:15:24.142Z,41.54
2022-08-26T17:16:58.001Z,42.58
2022-08-26T17:18:31.589Z,42.61
2022-08-26T17:20:09.524Z,43.49
2022-08-26T17:21:43.064Z,44.08
2022-08-26T17:23:16.959Z,45.04
2022-08-26T17:24:52.133Z,45.47
2022-08-26T17:26:26.606Z,45.70
2022-08-26T17:28:00.610Z,46.11
2022-08-26T17:29:34.465Z,46.95
2022-08-26T17:31:08.489Z,47.40
2022-08-26T17:32:43.097Z,47.94
2022-08-26T17:34:20.042Z,48.37
2022-08-26T17:35:53.826Z,48.73
2022-08-26T17:37:26.922Z,48.81
2022-08-26T17:39:00.896Z,49.25
2022-08-26T17:40:35.441Z,49.28
2022-08-26T17:42:09.938Z,49.35
2022-08-26T17:43:43.369Z,49.63
2022-08-26T17:45:16.903Z,49.72
2022-08-26T17:46:50.407Z,49.82
2022-08-26T17:48:24.347Z,50.27
2022-08-26T17:49:58.770Z,50.27
2022-08-26T17:51:32.190Z,50.33
2022-08-26T17:53:05.865Z,50.04
2022-08-26T17:54:39.471Z,50.06
2022-08-26T17:56:14.443Z,50.38
2022-08-26T17:57:53.137Z,50.32
2022-08-26T17:59:29.814Z,50.20
2022-08-26T18:01:05.935Z,50.21
2022-08-26T18:02:42.164Z,50.37
2022-08-26T18:04:15.972Z,50.59
2022-08-26T18:05:50.127Z,50.42
2022-08-26T18:07:23.912Z,50.57
2022-08-26T18:08:57.621Z,50.66
2022-08-26T18:10:31.896Z,50.51
2022-08-26T18:12:05.606Z,50.87
2022-08-26T18:13:47.135Z,50.63
2022-08-26T18:15:21.034Z,51.20
2022-08-26T18:16:54.443Z,51.08
2022-08-26T18:18:27.940Z,51.46
2022-08-26T18:20:02.000Z,51.59
2022-08-26T18:21:37.108Z,51.27
2022-08-26T18:23:10.940Z,51.43
2022-08-26T18:24:58.677Z,51.11
2022-08-26T18:26:35.000Z,51.15
2022-08-26T18:28:08.683Z,51.35
2022-08-26T18:29:45.228Z,51.48
2022-08-26T18:31:19.064Z,51.83
2022-08-26T18:32:52.940Z,52.33
2022-08-26T18:34:31.847Z,52.57
2022-08-26T18:36:08.679Z,52.54
2022-08-26T18:37:42.165Z,53.02
2022-08-26T18:39:16.047Z,53.33
2022-08-26T18:40:49.418Z,53.50
2022-08-26T18:42:24.514Z,53.72
2022-08-26T18:43:57.941Z,54.33
2022-08-26T18:45:31.698Z,54.62
2022-08-26T18:47:05.373Z,55.04
2022-08-26T18:48:40.178Z,54.97
2022-08-26T18:50:13.523Z,55.45
2022-08-26T18:51:47.371Z,55.82
2022-08-26T18:53:23.012Z,56.22
2022-08-26T18:54:59.478Z,56.96
2022-08-26T18:56:34.138Z,56.76
2022-08-26T18:58:07.482Z,57.06
2022-08-26T18:59:41.360Z,56.92
2022-08-26T19:01:15.589Z,56.94
2022-08-26T19:02:52.215Z,57.03
2022-08-26T19:04:29.310Z,57.23
2022-08-26T19:06:02.926Z,57.15
2022-08-26T19:07:39.609Z,57.34
2022-08-26T19:09:14.738Z,57.13
2022-08-26T19:10:51.785Z,57.34
2022-08-26T19:12:27.105Z,57.08
2022-08-26T19:14:01.684Z,57.16
2022-08-26T19:15:38.214Z,56.55
2022-08-26T19:17:12.468Z,56.54
2022-08-26T19:18:45.745Z,56.32
2022-08-26T19:20:19.317Z,56.32
2022-08-26T19:21:55.619Z,56.93
2022-08-26T19:23:31.762Z,57.21
2022-08-26T19:25:06.099Z,57.52
2022-08-26T19:26:39.791Z,57.13
2022-08-26T19:28:13.619Z,57.01
2022-08-26T19:29:47.293Z,56.93
2022-08-26T19:31:21.435Z,56.83
2022-08-26T19:32:55.198Z,56.79
2022-08-26T19:34:28.606Z,56.98
2022-08-26T19:36:05.935Z,57.32
2022-08-26T19:37:39.636Z,57.20
2022-08-26T19:39:13.833Z,57.25
2022-08-26T19:40:47.396Z,57.29
2022-08-26T19:42:20.899Z,57.67
2022-08-26T19:43:58.554Z,58.09
2022-08-26T19:45:32.565Z,58.04
2022-08-26T19:47:07.508Z,58.13
2022-08-26T19:48:41.241Z,58.19
2022-08-26T19:50:17.929Z,58.07
2022-08-26T19:51:52.106Z,58.22
2022-08-26T19:53:25.439Z,57.96
2022-08-26T19:54:59.413Z,58.74
2022-08-26T19:56:32.858Z,58.74
2022-08-26T19:58:06.634Z,59.33
2022-08-26T19:59:41.017Z,60.17
2022-08-26T20:01:14.978Z,59.84
2022-08-26T20:02:49.287Z,59.68
2022-08-26T20:04:22.823Z,60.04
2022-08-26T20:05:56.605Z,60.10
2022-08-26T20:07:30.174Z,60.24
2022-08-26T20:09:03.804Z,60.40
2022-08-26T20:10:37.254Z,59.97
2022-08-26T20:12:10.657Z,59.69
2022-08-26T20:13:45.250Z,59.53
2022-08-26T20:15:24.528Z,59.23
2022-08-26T20:17:06.427Z,58.81
2022-08-26T20:18:59.118Z,59.04
2022-08-26T20:20:50.784Z,59.00
2022-08-26T20:22:24.659Z,59.26
2022-08-26T20:24:01.972Z,59.14
2022-08-26T20:25:35.418Z,58.79
2022-08-26T20:27:08.897Z,58.83
2022-08-26T20:28:42.199Z,59.16
2022-08-26T20:30:16.248Z,59.14
2022-08-26T20:31:49.475Z,59.06
2022-08-26T20:33:22.922Z,58.92
2022-08-26T20:34:56.436Z,58.98
2022-08-26T20:36:34.204Z,58.52
2022-08-26T20:38:07.731Z,58.35
2022-08-26T20:39:41.907Z,58.21
2022-08-26T20:41:15.509Z,58.14
2022-08-26T20:42:49.371Z,58.08
2022-08-26T20:44:22.662Z,57.97
2022-08-26T20:45:56.296Z,57.74
2022-08-26T20:47:30.009Z,58.01
2022-08-26T20:49:03.918Z,57.68
2022-08-26T20:50:39.847Z,57.69
2022-08-26T20:52:14.239Z,57.64
2022-08-26T20:53:47.613Z,57.38
2022-08-26T20:55:21.647Z,57.52